Date,TemperatureHighF,TemperatureAvgF,TemperatureLowF,DewpointHighF,DewpointAvgF,DewpointLowF,HumidityHigh,HumidityAvg,HumidityLow,PressureMaxIn,PressureMinIn,WindSpeedMaxMPH,WindSpeedAvgMPH,GustSpeedMaxMPH,PrecipitationSumIn
2013-1-1,30,19,9,18,9,0,82,64,44,30.41,30.24,27,2,27,0.01
2013-1-2,30,16,8,2,-4,-7,66,43,19,30.55,30.39,26,2,26,0.00
2013-1-3,48,27,12,16,5,-6,51,39,25,30.54,30.24,9,1,0,0.00
2013-1-4,43,28,13,14,9,2,65,46,20,30.25,30.10,7,0,0,0.00
2013-1-5,37,18,8,14,4,-1,69,53,33,30.43,30.22,6,0,0,0.00
2013-1-6,44,32,13,20,13,2,68,45,31,30.32,29.94,18,2,18,0.00
2013-1-7,40,29,13,17,12,6,76,51,37,29.97,29.74,28,3,28,0.00
2013-1-8,37,32,19,19,13,7,62,46,31,30.09,29.76,27,5,35,0.00
2013-1-9,51,37,23,21,17,10,74,46,22,30.09,29.66,21,3,21,0.00
2013-1-10,43,29,12,22,16,8,88,62,32,29.67,29.44,15,2,15,0.00
2013-1-11,12,4,0,10,-2,-6,92,75,65,30.32,29.56,16,2,16,0.00
2013-1-12,11,2,-6,2,-4,-11,80,76,67,30.42,30.31,7,0,0,0.00
2013-1-13,9,0,-8,-2,-7,-12,79,69,56,30.50,30.41,9,1,0,0.00
2013-1-14,17,4,-6,9,-4,-12,83,67,38,30.50,30.33,7,0,0,0.00
2013-1-15,35,26,14,27,20,10,92,78,62,30.37,30.22,11,1,0,0.12
2013-1-16,42,26,16,20,16,11,87,68,36,30.48,30.21,7,1,0,0.03
2013-1-17,50,31,18,19,12,9,72,49,23,30.52,30.15,13,2,13,0.02
2013-1-18,48,38,24,16,12,8,57,34,22,30.16,29.92,29,4,29,0.00
2013-1-19,43,28,17,14,9,5,62,45,23,30.24,30.00,8,0,0,0.00
2013-1-20,32,20,11,16,12,7,92,72,41,30.44,30.22,13,1,13,0.00
2013-1-21,45,29,16,16,12,7,76,52,25,30.38,30.10,9,1,0,0.00
2013-1-22,48,28,14,16,8,2,62,46,19,30.20,30.10,7,0,0,0.00
2013-1-23,52,36,22,18,12,7,65,39,18,30.17,29.96,23,2,23,0.00
2013-1-24,46,36,20,22,16,10,67,45,28,30.10,29.81,28,4,28,0.00
2013-1-25,42,39,29,24,20,11,52,46,36,30.09,29.90,22,6,22,0.00
2013-1-26,48,35,26,26,22,18,76,60,41,29.91,29.67,15,1,15,0.00
2013-1-27,32,25,18,25,20,14,92,81,66,29.89,29.67,14,1,14,0.00
2013-1-28,26,15,6,18,9,0,92,75,57,29.97,29.87,11,0,0,0.07
2013-1-29,19,12,-1,12,4,-5,83,71,48,30.28,29.87,18,2,18,0.00
2013-1-30,16,13,7,10,6,0,82,75,72,30.17,30.04,4,0,0,0.00
2013-1-31,37,26,19,24,18,14,85,74,56,30.20,30.13,7,0,0,0.16
2013-2-1,37,25,12,22,16,6,83,68,45,30.36,30.10,17,1,17,0.02
2013-2-2,40,20,6,19,10,1,84,67,39,30.54,30.34,8,0,0,0.04
2013-2-3,47,31,22,18,13,8,67,48,22,30.40,29.96,15,1,15,0.00
2013-2-4,40,34,23,19,16,12,71,47,37,29.98,29.81,20,3,20,0.00
2013-2-5,45,31,16,22,16,10,81,56,33,29.97,29.81,23,2,23,0.00
2013-2-6,39,28,16,21,14,6,73,55,38,30.15,29.77,16,1,17,0.00
2013-2-7,41,28,22,17,6,0,64,40,23,30.16,29.97,17,2,17,0.00
2013-2-8,36,26,17,15,10,3,73,51,29,29.99,29.89,14,1,14,0.00
2013-2-9,30,22,13,19,14,7,86,72,50,30.00,29.87,14,1,14,0.00
2013-2-10,22,14,-1,16,6,-6,86,72,42,30.28,29.99,23,4,23,0.05
2013-2-11,27,10,-1,11,0,-9,85,63,36,30.31,30.25,9,0,0,0.00
2013-2-12,36,21,3,17,10,-2,86,63,40,30.32,30.07,16,1,16,0.01
2013-2-13,41,32,23,21,16,12,81,53,32,30.09,29.96,22,3,22,0.00
2013-2-14,27,20,17,20,13,7,86,76,62,30.43,30.07,18,2,22,0.03
2013-2-15,36,26,15,20,14,8,81,60,45,30.50,30.28,24,2,24,0.05
2013-2-16,49,34,21,21,16,11,68,48,29,30.29,29.76,18,2,18,0.00
2013-2-17,36,28,17,23,15,6,83,58,33,29.98,29.62,25,3,25,0.00
2013-2-18,28,15,2,15,8,-3,84,73,57,30.20,29.98,11,0,0,0.00
2013-2-19,31,18,2,16,8,-3,92,66,50,30.17,29.89,9,1,0,0.00
2013-2-20,29,20,13,17,12,8,95,73,56,29.99,29.84,9,1,0,0.00
2013-2-21,26,16,8,15,9,2,84,74,60,30.09,29.97,13,1,13,0.00
2013-2-22,32,22,8,15,6,-1,70,52,35,30.14,29.80,23,3,23,0.01
2013-2-23,32,26,21,21,13,7,85,57,40,30.02,29.64,22,4,22,0.00
2013-2-24,32,19,9,15,9,2,79,65,44,30.26,30.01,12,1,12,0.02
2013-2-25,38,24,8,17,10,1,76,56,37,30.19,29.95,17,1,17,0.01
2013-2-26,31,20,10,14,5,-2,69,52,32,30.37,29.99,21,1,21,0.00
2013-2-27,35,18,2,15,4,-5,75,55,34,30.43,30.37,14,1,14,0.00
2013-2-28,37,25,11,16,8,1,67,50,25,30.43,30.33,13,1,13,0.00
2013-3-1,49,33,20,26,20,7,72,59,35,30.39,30.28,18,1,18,0.00
2013-3-2,53,42,29,27,22,16,67,46,29,30.31,29.83,19,3,19,0.00
2013-3-3,47,34,19,27,19,-1,87,55,35,29.83,29.43,23,3,23,0.00
2013-3-4,22,15,2,5,2,-4,77,54,34,30.46,29.79,25,3,25,0.00
2013-3-5,33,17,-2,14,5,-6,82,60,39,30.46,30.21,10,1,0,0.01
2013-3-6,51,36,20,28,18,10,70,48,31,30.20,29.74,19,2,19,0.00
2013-3-7,43,33,25,19,12,4,72,43,24,30.00,29.74,23,2,23,0.00
2013-3-8,36,29,22,24,20,15,82,70,57,30.00,29.87,12,1,12,0.00
2013-3-9,35,27,18,21,13,6,84,57,39,30.31,29.95,25,2,25,0.00
2013-3-10,47,32,18,21,13,2,67,47,29,30.31,30.05,15,1,15,0.00
2013-3-11,40,29,16,21,16,4,86,60,23,30.29,29.96,25,3,25,0.00
2013-3-12,43,25,4,25,15,0,84,68,41,30.36,30.21,19,2,19,0.07
2013-3-13,54,47,41,26,24,22,51,41,31,30.22,30.04,21,5,21,0.00
2013-3-14,57,48,38,32,26,19,61,42,28,30.07,29.86,19,2,19,0.00
2013-3-15,57,47,27,28,21,16,84,38,21,29.89,29.75,22,3,22,0.00
2013-3-16,45,35,25,29,22,12,86,63,33,29.89,29.63,19,2,19,0.00
2013-3-17,39,28,14,26,14,-2,87,58,29,29.90,29.40,24,3,24,0.08
2013-3-18,32,21,7,15,5,-1,72,52,26,30.09,29.89,17,2,17,0.01
2013-3-19,34,22,14,15,10,3,84,61,31,30.35,30.08,25,2,25,0.01
2013-3-20,49,35,18,24,16,2,69,46,33,30.32,29.58,20,2,20,0.01
2013-3-21,38,28,13,27,18,6,86,67,45,29.93,29.53,16,2,16,0.09
2013-3-22,26,16,10,15,6,-2,92,65,36,30.27,29.92,18,2,18,0.00
2013-3-23,19,9,-5,11,3,-9,89,75,61,30.50,30.27,13,1,13,0.00
2013-3-24,24,14,2,8,3,-3,92,63,42,30.51,30.43,19,2,19,0.02
2013-3-25,39,22,8,14,4,-4,61,46,29,30.46,30.19,17,2,17,0.05
2013-3-26,43,33,26,19,11,-2,64,42,27,30.19,29.96,13,1,13,0.02
2013-3-27,53,37,26,23,17,12,68,47,27,30.05,29.98,12,1,12,0.00
2013-3-28,56,40,30,26,20,16,59,46,24,30.07,29.98,14,1,14,0.00
2013-3-29,53,38,28,33,25,17,90,60,35,30.15,30.01,11,1,0,0.23
2013-3-30,50,37,26,33,26,19,91,68,32,30.17,30.08,15,1,15,0.09
2013-3-31,54,36,24,26,21,17,81,57,31,30.12,30.01,23,2,23,0.00
2013-4-1,52,34,22,27,20,17,92,59,29,30.13,30.07,11,1,0,0.00
2013-4-2,61,41,24,26,20,16,77,47,22,30.11,29.94,13,1,13,0.00
2013-4-3,55,42,30,28,24,19,74,51,29,30.04,29.92,15,1,15,0.00
2013-4-4,59,45,30,33,29,22,78,54,35,30.03,29.72,14,1,14,0.00
2013-4-5,53,44,31,38,29,21,81,55,37,29.77,29.56,18,2,19,0.05
2013-4-6,55,40,27,30,25,21,80,58,32,29.83,29.73,15,1,15,0.00
2013-4-7,51,37,27,35,28,23,90,72,38,29.76,29.50,22,2,22,0.04
2013-4-8,32,17,10,29,13,5,90,83,75,30.37,29.60,16,3,16,0.00
2013-4-9,20,12,4,14,7,0,92,81,75,30.59,30.36,13,1,13,0.05
2013-4-10,39,25,4,25,16,-1,86,71,48,30.51,29.93,13,1,13,0.11
2013-4-11,46,37,26,29,25,19,90,65,37,29.97,29.83,20,3,20,0.03
2013-4-12,42,31,20,26,21,14,87,67,47,30.03,29.71,15,2,15,0.03
2013-4-13,50,35,24,30,23,14,89,63,36,29.72,29.30,18,2,18,0.13
2013-4-14,32,22,11,20,12,5,86,67,36,29.96,29.55,30,3,30,0.04
2013-4-15,19,15,9,14,11,4,92,82,72,30.29,29.95,14,2,14,0.06
2013-4-16,19,15,11,14,11,6,92,82,75,30.44,30.22,14,2,14,0.00
2013-4-17,23,12,-1,13,6,-5,84,75,53,30.52,30.43,22,2,22,0.00
2013-4-18,38,25,5,23,12,0,81,60,38,30.50,30.24,17,2,17,0.06
2013-4-19,45,34,19,30,22,14,82,63,44,30.24,29.85,10,1,0,0.01
2013-4-20,49,37,28,33,25,19,81,63,35,29.96,29.84,12,1,12,0.04
2013-4-21,33,24,17,25,21,14,90,85,72,30.27,29.95,14,2,14,0.00
2013-4-22,20,15,4,16,10,0,93,84,79,30.60,30.26,12,2,12,0.16
2013-4-23,33,21,6,22,11,0,87,66,45,30.58,30.33,11,1,0,0.10
2013-4-24,46,32,17,26,18,11,87,59,30,30.35,30.01,23,2,23,0.02
2013-4-25,57,46,35,23,17,11,51,32,21,30.03,29.78,20,4,20,0.00
2013-4-26,65,47,33,30,23,15,59,40,16,30.08,29.93,13,1,13,0.00
2013-4-27,66,52,39,29,24,17,60,37,19,30.07,29.75,18,2,18,0.00
2013-4-28,54,44,36,40,30,25,83,59,37,29.85,29.74,16,1,16,0.05
2013-4-29,40,33,29,33,29,23,96,85,72,29.65,29.43,16,2,16,0.12
2013-4-30,37,26,20,24,18,9,88,73,37,30.30,29.64,23,2,23,0.06
2013-5-1,35,26,20,24,18,13,86,73,51,30.73,30.30,11,1,0,0.17
2013-5-2,57,36,20,24,16,10,72,48,19,30.77,30.33,12,1,12,0.00
2013-5-3,56,43,34,36,24,14,89,51,25,30.34,30.05,13,1,13,0.11
2013-5-4,47,38,33,38,33,30,92,85,63,30.25,30.11,13,1,13,0.24
2013-5-5,55,43,32,38,32,28,91,67,39,30.24,29.99,17,2,17,0.00
2013-5-6,63,48,34,36,30,25,76,53,30,30.01,29.81,14,1,14,0.00
2013-5-7,68,54,40,35,30,26,62,41,24,29.85,29.74,19,2,19,0.00
2013-5-8,62,50,34,38,34,29,83,54,34,30.01,29.84,15,1,15,0.00
2013-5-9,65,50,40,38,31,25,68,51,28,30.07,29.99,18,2,18,0.00
2013-5-10,65,48,32,42,32,26,80,55,27,30.30,30.06,18,1,18,0.03
2013-5-11,67,50,28,38,31,24,86,52,26,30.31,30.07,14,1,16,0.00
2013-5-12,77,62,45,42,35,31,58,38,22,30.08,29.80,17,2,17,0.00
2013-5-13,79,66,52,41,35,31,52,34,19,29.82,29.53,21,2,21,0.00
2013-5-14,69,57,39,45,38,27,83,50,24,29.75,29.55,17,1,17,0.00
2013-5-15,65,51,34,42,31,24,83,50,30,29.87,29.73,14,1,14,0.01
2013-5-16,61,48,39,46,40,35,90,75,54,29.77,29.65,16,1,16,0.10
2013-5-17,50,45,37,46,41,35,92,87,76,29.82,29.74,10,0,0,0.16
2013-5-18,51,42,36,44,39,33,91,87,70,29.89,29.80,14,1,14,0.40
2013-5-19,44,41,39,39,37,34,91,86,75,30.06,29.87,17,2,17,1.16
2013-5-20,55,44,38,40,37,33,92,77,46,30.10,30.01,27,3,27,0.67
2013-5-21,59,45,32,37,31,25,90,63,31,30.08,29.85,12,1,12,0.01
2013-5-22,59,44,31,45,38,27,92,78,50,29.86,29.76,11,1,0,0.48
2013-5-23,61,50,40,50,43,38,93,79,51,29.82,29.62,16,2,16,0.30
2013-5-24,62,49,38,40,27,17,90,47,22,29.87,29.62,21,3,21,0.02
2013-5-25,66,51,37,41,32,22,79,49,27,29.86,29.73,14,1,14,0.00
2013-5-26,65,49,37,48,38,28,87,66,39,29.85,29.71,16,1,16,0.06
2013-5-27,60,48,38,44,36,27,92,64,33,29.81,29.67,21,2,21,0.02
2013-5-28,59,48,40,44,37,30,88,67,49,29.70,29.56,12,1,12,0.61
2013-5-29,47,41,35,43,37,32,92,86,72,29.66,29.58,11,1,0,1.34
2013-5-30,56,46,39,40,34,26,90,65,37,29.73,29.60,15,1,15,0.00
2013-5-31,56,47,41,35,31,26,78,54,38,30.12,29.73,24,3,24,0.01
2013-6-1,62,48,34,42,37,30,85,66,43,30.17,29.97,16,1,16,0.00
2013-6-2,68,53,39,46,40,34,90,64,35,29.97,29.53,13,1,13,0.08
2013-6-3,60,48,35,44,34,26,92,62,32,29.92,29.53,21,4,21,0.02
2013-6-4,45,39,35,36,34,31,90,83,71,30.26,29.92,15,2,15,0.03
2013-6-5,63,47,30,41,34,27,90,64,39,30.25,29.99,11,1,0,0.01
2013-6-6,68,56,41,47,40,33,76,57,37,30.00,29.88,15,1,16,0.00
2013-6-7,72,60,46,51,44,36,76,55,36,29.89,29.54,26,1,26,0.03
2013-6-8,68,58,42,46,37,30,79,47,27,29.78,29.58,25,3,25,0.01
2013-6-9,81,61,41,45,39,34,78,48,20,29.83,29.55,20,1,23,0.00
2013-6-10,69,56,39,51,42,34,90,63,37,29.73,29.58,19,1,19,0.11
2013-6-11,69,56,48,56,48,42,90,73,49,29.72,29.58,17,1,17,0.03
2013-6-12,68,58,46,53,46,39,92,68,39,29.95,29.83,14,1,14,0.09
2013-6-13,74,58,44,55,45,33,89,65,33,29.89,29.58,31,2,31,0.23
2013-6-14,59,50,35,39,30,20,82,48,28,29.98,29.67,21,4,21,0.00
2013-6-15,68,52,32,39,31,22,76,47,27,30.00,29.86,13,1,13,0.00
2013-6-16,67,54,39,50,39,27,84,58,39,30.02,29.91,11,0,0,0.01
2013-6-17,72,56,40,52,45,36,88,67,38,30.03,29.86,10,0,0,0.00
2013-6-18,80,64,49,55,41,34,80,47,24,29.87,29.54,12,1,12,0.01
2013-6-19,80,65,46,49,36,20,66,36,19,29.55,29.21,44,4,44,0.00
2013-6-20,67,51,33,37,26,17,79,41,21,29.90,29.40,25,2,25,0.00
2013-6-21,59,48,36,44,37,29,87,68,41,29.97,29.86,15,1,15,0.01
2013-6-22,56,46,35,47,39,32,91,79,54,29.97,29.82,13,1,13,0.08
2013-6-23,72,53,34,45,37,27,87,60,20,29.95,29.66,13,1,13,0.00
2013-6-24,77,61,47,49,39,32,73,47,22,29.66,29.44,23,2,23,0.01
2013-6-25,72,62,53,43,39,35,64,43,29,29.68,29.48,16,3,16,0.00
2013-6-26,76,63,47,49,44,39,84,53,29,29.92,29.65,14,1,14,0.00
2013-6-27,78,63,45,53,47,41,87,59,34,30.05,29.92,9,1,0,0.00
2013-6-28,79,65,51,55,48,44,79,58,35,30.06,29.98,9,1,0,0.00
2013-6-29,81,64,46,55,49,41,86,61,38,30.01,29.89,8,1,0,0.00
2013-6-30,79,71,55,60,53,48,82,56,37,29.97,29.89,11,1,0,0.00
2013-7-1,78,66,54,58,52,47,82,62,42,30.00,29.94,11,1,0,0.00
2013-7-2,84,68,51,54,47,39,81,51,24,29.99,29.78,11,1,12,0.00
2013-7-3,85,72,57,55,46,38,69,41,23,29.79,29.62,17,2,17,0.00
2013-7-4,82,64,53,59,52,43,89,65,38,29.68,29.57,14,1,14,0.97
2013-7-5,69,60,55,56,50,42,88,70,43,29.69,29.55,19,1,19,0.15
2013-7-6,73,61,48,57,50,42,84,68,46,29.76,29.65,14,1,14,0.06
2013-7-7,74,60,46,58,49,42,86,70,38,29.87,29.70,15,1,15,0.10
2013-7-8,82,67,52,55,47,36,77,52,27,29.86,29.66,15,2,15,0.04
2013-7-11,81,67,60,57,46,38,67,49,33,29.66,29.55,15,1,15,0.00
2013-7-12,79,65,53,50,43,35,81,47,24,29.72,29.61,13,2,13,0.00
2013-7-13,80,64,47,54,45,36,91,54,26,29.96,29.68,16,1,16,0.08
2013-7-14,77,61,50,56,50,46,91,68,35,29.98,29.86,8,1,12,0.01
2013-7-15,84,67,51,54,45,34,79,48,19,29.90,29.68,8,1,0,0.00
2013-7-16,64,57,48,55,47,39,89,72,44,30.03,29.75,11,1,0,0.05
2013-7-17,73,59,49,60,52,46,92,81,44,30.05,29.94,9,0,0,0.42
2013-7-18,79,65,52,56,49,40,85,59,31,29.99,29.85,9,0,0,0.00
2013-7-19,80,64,48,49,42,33,68,46,22,29.95,29.77,9,1,0,0.00
2013-7-20,76,62,47,50,42,35,72,50,32,29.86,29.70,10,1,0,0.00
2013-7-21,81,66,51,47,38,29,68,39,16,29.73,29.64,11,1,0,0.00
2013-7-22,82,67,50,48,39,29,62,37,18,29.79,29.64,14,1,14,0.00
2013-7-23,81,65,46,47,40,33,78,44,19,29.95,29.79,11,1,0,0.00
2013-7-24,83,67,51,52,45,41,76,48,24,29.96,29.73,13,1,13,0.00
2013-7-25,76,63,49,52,46,40,81,56,39,29.97,29.76,13,1,13,0.00
2013-7-26,78,61,43,53,46,39,92,63,35,30.03,29.89,14,1,14,0.00
2013-7-27,81,63,50,52,46,40,80,57,25,29.91,29.71,10,0,0,0.02
2013-7-28,72,60,52,54,48,44,87,67,43,29.77,29.64,9,0,14,0.14
2013-7-29,67,54,46,53,48,42,88,78,49,29.97,29.72,13,0,13,0.03
2013-7-30,71,57,45,55,48,42,90,71,49,30.09,29.92,12,1,12,0.18
2013-7-31,77,63,47,54,45,38,86,57,26,30.10,29.92,12,1,12,0.01
2013-8-1,78,66,57,54,48,42,76,55,35,29.94,29.61,16,1,16,0.01
2013-8-2,72,58,45,54,48,40,92,73,38,29.94,29.66,15,1,15,0.01
2013-8-3,72,56,44,55,48,40,91,75,54,29.99,29.90,9,0,0,0.00
2013-8-4,74,60,47,54,49,42,88,69,42,29.99,29.81,10,0,0,0.01
2013-8-5,79,62,47,54,45,39,84,58,29,29.90,29.69,19,0,19,0.00
2013-8-6,77,59,44,48,41,36,83,56,25,29.93,29.77,17,1,17,0.00
2013-8-7,78,61,45,47,42,35,79,54,23,29.93,29.76,13,1,13,0.00
2013-8-9,67,58,47,54,49,43,87,72,55,30.00,29.95,8,0,0,0.11
2013-8-10,77,60,46,53,46,40,87,61,38,29.99,29.88,13,1,13,0.01
2013-8-11,79,66,52,49,43,38,64,44,31,29.96,29.85,18,1,18,0.00
2013-8-12,79,65,51,53,42,36,73,45,26,29.95,29.83,9,0,0,0.00
2013-8-13,76,59,47,49,44,40,83,61,37,30.06,29.88,16,1,16,0.17
2013-8-14,77,61,46,49,42,38,81,54,29,30.00,29.86,8,0,0,0.00
2013-8-15,84,67,53,49,41,36,65,41,21,29.93,29.80,9,1,0,0.00
2013-8-16,90,72,49,45,34,27,62,28,11,29.83,29.69,10,1,0,0.00
2013-8-17,83,67,50,48,39,28,65,38,26,29.78,29.70,9,0,0,0.00
2013-8-18,79,66,52,51,43,33,69,44,33,29.83,29.75,13,1,13,0.00
2013-8-19,86,68,53,49,42,36,64,40,22,29.86,29.68,8,0,0,0.00
2013-8-20,82,66,52,46,39,35,65,40,20,29.78,29.71,9,0,0,0.01
2013-8-21,75,62,50,51,41,34,79,50,27,29.94,29.76,9,0,0,0.02
2013-8-22,80,65,48,51,46,40,79,52,32,29.96,29.76,11,0,0,0.00
2013-8-23,82,69,58,56,46,39,71,46,25,29.76,29.56,13,1,0,0.03
2013-9-3,80,76,71,53,48,44,48,38,32,29.87,29.82,6,0,0,0.00
2013-9-7,76,66,53,56,52,45,88,62,42,29.84,29.75,11,0,0,0.00
2013-9-8,68,59,51,56,49,39,88,70,43,29.86,29.66,9,0,0,0.00
2013-9-9,64,54,43,49,42,37,90,68,39,29.97,29.72,15,1,15,0.00
2013-9-10,74,55,41,47,41,35,81,60,36,30.04,29.94,9,1,0,0.00
2013-9-11,73,58,46,48,42,38,80,57,33,30.15,30.02,9,0,0,0.00
2013-9-12,72,57,45,48,43,39,84,62,39,30.15,29.92,12,1,12,0.00
2013-9-13,68,55,44,51,46,40,92,71,37,29.92,29.71,4,0,0,0.07
2013-9-14,53,52,50,51,49,46,95,90,83,30.01,29.74,9,0,0,1.49
2013-9-15,66,55,50,56,49,46,94,82,56,30.05,29.87,19,1,19,0.76
2013-9-16,78,60,44,56,47,40,90,65,29,29.87,29.66,9,0,0,0.00
2013-9-17,71,57,48,52,44,34,86,64,32,29.70,29.46,20,2,20,0.17
2013-9-18,59,51,38,43,35,29,85,57,37,29.87,29.48,16,2,16,0.01
2013-9-19,54,42,34,39,32,28,84,70,51,30.14,29.87,10,0,0,0.00
2013-9-20,68,48,32,41,31,22,81,55,27,30.13,29.80,9,0,0,0.00
2013-9-21,75,56,38,42,34,27,76,49,21,29.81,29.50,14,1,14,0.00
2013-9-22,67,55,47,43,38,32,77,54,30,29.50,29.36,10,0,0,0.00
2013-9-23,62,51,36,38,32,25,87,51,28,29.84,29.49,14,2,14,0.00
2013-9-24,64,51,38,39,32,28,75,50,31,29.85,29.56,17,2,17,0.00
2013-9-25,53,42,36,38,34,30,92,77,42,29.65,29.47,11,0,0,0.13
2013-9-26,39,33,26,33,29,23,92,85,67,30.02,29.61,13,2,13,0.01
2013-9-27,40,33,29,34,28,24,91,85,71,30.02,29.96,8,0,0,0.18
2013-9-28,56,45,30,34,29,24,83,54,37,29.98,29.81,15,2,16,0.00
2013-9-29,59,52,40,35,32,29,75,49,38,29.82,29.51,29,4,29,0.00
2013-9-30,53,44,34,47,38,26,92,80,52,29.78,29.44,18,2,18,0.64
2013-10-1,58,44,33,37,29,21,87,59,35,29.93,29.78,12,1,12,0.00
2013-10-2,44,38,28,35,31,25,91,76,62,30.01,29.89,9,0,0,0.00
2013-10-3,37,30,26,32,27,23,91,86,77,30.33,29.80,11,2,0,0.08
2013-10-4,32,25,18,24,20,14,89,83,67,30.54,30.33,16,2,16,0.22
2013-10-5,50,32,17,35,23,13,87,71,36,30.51,30.34,6,0,0,0.14
2013-10-6,64,46,34,40,30,19,82,56,26,30.34,30.03,13,0,13,0.00
2013-10-7,66,51,36,34,22,14,67,33,19,30.03,29.70,13,2,0,0.00
2013-10-22,58,45,32,38,30,24,75,59,38,30.16,30.05,6,0,0,0.00
2013-10-23,54,38,28,35,27,21,88,66,43,30.24,30.13,10,0,0,0.00
2013-10-24,54,38,26,39,28,22,88,69,45,30.26,30.16,6,0,0,0.00
2013-10-25,60,44,34,33,26,22,73,50,25,30.24,30.14,14,1,14,0.00
2013-10-26,59,44,32,34,24,18,74,47,30,30.25,29.99,12,1,0,0.00
2013-10-27,55,44,30,30,25,20,86,48,32,29.99,29.70,14,2,12,0.00
2013-10-28,29,20,15,26,17,12,92,86,81,30.21,29.93,12,2,0,0.00
2013-10-29,25,19,14,22,16,10,90,87,85,30.21,30.04,3,0,0,0.03
2013-10-30,40,30,24,33,26,20,91,83,61,30.04,29.88,8,0,0,0.22
2013-10-31,47,37,28,29,22,14,75,55,34,29.95,29.77,17,2,17,0.01
2013-11-1,45,34,25,23,19,15,75,55,38,30.15,29.95,10,1,0,0.00
2013-11-2,55,43,26,26,21,17,75,44,26,30.14,29.48,22,4,22,0.00
2013-11-3,46,34,29,30,28,26,91,80,46,29.50,29.47,10,0,0,0.00
2013-11-5,32,29,20,18,10,8,68,46,38,30.22,30.18,13,3,13,0.00
2013-11-6,41,31,19,21,15,9,84,54,29,30.35,30.16,12,2,0,0.00
2013-11-7,50,36,18,32,24,14,86,64,40,30.37,29.71,17,1,17,0.01
2013-11-8,42,36,27,33,21,17,89,56,43,30.01,29.66,17,3,17,0.13
2013-11-9,39,30,24,24,21,17,83,69,49,30.22,30.01,7,0,0,0.00
2013-11-10,56,40,23,30,26,20,90,59,36,30.21,30.05,18,2,18,0.00
2013-11-11,42,30,20,32,25,17,91,83,60,30.57,30.11,5,0,0,0.00
2013-11-12,61,43,28,31,22,13,62,44,23,30.56,30.20,11,1,0,0.00
2013-11-13,55,42,26,29,25,20,80,53,34,30.20,29.92,9,0,0,0.00
2013-11-14,44,32,24,25,19,13,82,60,40,30.05,29.74,12,1,12,0.00
2013-11-15,40,33,23,19,13,10,67,44,31,29.74,29.35,18,4,18,0.00
2013-11-16,38,30,21,20,15,11,80,55,38,29.52,29.23,19,2,19,0.00
2013-11-17,35,28,16,14,9,4,67,46,37,30.04,29.51,22,3,22,0.00
2013-11-18,48,38,30,20,16,13,55,41,30,30.02,29.72,21,4,21,0.00
2013-11-19,50,41,29,26,22,16,64,47,38,29.73,29.58,19,2,19,0.00
2013-11-20,40,17,4,25,11,0,87,76,53,30.40,29.58,8,0,0,0.00
2013-11-21,22,10,2,13,4,-2,83,75,60,30.78,30.40,10,0,0,0.12
2013-11-22,29,14,9,12,6,2,80,70,41,30.84,30.73,6,0,0,0.03
2013-11-23,40,25,11,20,11,4,78,56,40,30.81,30.35,6,1,0,0.02
2013-11-24,49,33,26,22,14,8,72,48,24,30.34,30.10,8,0,0,0.01
2013-11-25,38,30,24,22,18,15,76,63,44,30.43,30.19,9,0,0,0.00
2013-11-26,48,34,24,26,18,15,69,54,34,30.44,30.15,11,1,0,0.00
2013-11-27,47,33,22,23,19,16,78,58,34,30.16,30.06,9,0,0,0.00
2013-11-28,46,34,20,27,20,14,78,57,34,30.17,30.08,11,1,0,0.00
2013-11-29,52,38,29,24,19,16,61,46,27,30.10,30.00,12,1,0,0.00
2013-11-30,45,36,26,24,21,18,74,56,40,30.13,30.05,14,1,14,0.00
2013-12-1,40,36,28,27,23,18,76,59,44,30.08,29.67,18,3,18,0.00
2013-12-2,44,33,14,31,25,10,89,75,43,29.67,29.39,18,2,18,0.00
2013-12-3,14,4,-7,10,-2,-11,85,76,68,30.33,29.61,21,3,21,0.00
2013-12-4,2,-6,-12,-5,-11,-16,89,76,70,30.54,30.32,7,0,0,0.00
2013-12-5,5,-10,-16,-3,-15,-20,77,72,59,30.67,30.52,2,0,0,0.00
2013-12-6,-9,-20,-27,-14,-23,-30,75,72,67,30.87,30.65,4,0,0,0.00
2013-12-7,-12,-21,-29,-16,-24,-32,78,73,70,30.86,30.55,3,0,0,0.00
2013-12-8,7,-3,-13,1,-8,-17,89,75,64,30.55,30.43,5,0,0,0.00
2013-12-9,21,9,-12,9,0,-16,78,64,46,30.44,30.27,16,2,16,0.00
2013-12-10,24,15,0,9,2,-5,81,58,39,30.41,30.09,18,4,18,0.00
2013-12-11,33,15,-2,14,5,-7,85,66,37,30.53,30.40,6,0,0,0.05
2013-12-12,43,33,22,19,16,12,76,50,33,30.44,29.93,21,5,21,0.01
2013-12-13,35,28,18,19,14,8,71,56,41,30.27,29.89,18,2,18,0.00
2013-12-14,40,27,12,20,14,5,76,59,39,30.35,30.17,13,1,13,0.00
2013-12-15,46,40,31,20,17,13,58,38,28,30.18,29.97,20,5,20,0.00
2013-12-16,42,38,33,19,16,13,52,40,34,30.21,29.96,20,5,20,0.00
2013-12-17,51,40,22,22,17,13,69,41,29,30.22,29.81,26,6,26,0.00
2013-12-18,48,40,23,21,17,13,88,43,28,29.82,29.56,21,3,21,0.00
2013-12-19,23,8,-1,20,3,-5,90,81,75,30.19,29.60,12,1,12,0.00
2013-12-20,28,19,7,9,4,-2,75,53,28,30.17,29.66,15,2,15,0.01
2013-12-21,24,20,12,16,10,1,89,67,40,30.07,29.65,13,1,14,0.00
2013-12-22,19,13,7,16,8,2,87,82,75,30.43,30.05,6,0,0,0.00
2013-12-23,39,29,8,28,18,3,86,66,49,30.44,29.93,27,4,27,0.12
2013-12-24,36,25,10,27,11,3,88,58,35,30.42,29.96,17,2,17,0.01
2013-12-25,43,23,9,19,9,2,77,57,34,30.52,30.29,19,1,19,0.03
2013-12-26,50,36,26,26,22,14,72,56,36,30.35,30.11,12,1,12,0.01
2013-12-27,56,38,29,25,18,11,73,47,19,30.17,29.88,12,1,12,0.00
2013-12-28,45,22,5,21,11,1,85,67,25,30.37,29.79,20,2,24,0.01
2013-12-29,33,21,10,16,11,3,80,65,44,30.41,30.07,16,1,16,0.02
2013-12-30,38,30,19,21,16,12,77,56,41,30.28,29.98,20,2,20,0.00
2013-12-31,41,34,21,26,20,14,89,60,43,30.00,29.85,18,4,18,0.00
2014-1-1,28,20,10,23,16,6,92,84,76,30.38,29.99,26,1,26,0.13
2014-1-2,42,28,11,30,19,7,86,71,47,30.37,29.91,17,2,17,0.02